Time;durP1;ratioP1;P1;durP2;ratioP2;P2;SDS_P1;SDS_P2;PMS_P1;PMS_P2;Temp;Humidity;BMP_temperature;BMP_pressure;BME280_temperature;BME280_humidity;BME280_pressure;Samples;Min_cycle;Max_cycle;Signal;HPM_P1;HPM_P2
2021/07/14 00:00:42;;;;;;;;;;;;;;;21.85;53.18;100616.03;5160974;27;763;-61
2021/07/14 00:03:07;;;;;;;;;;;;;;;21.99;53.03;100612.38;5160573;27;1034;-61
2021/07/14 00:05:33;;;;;;;;;;;;;;;22.16;53.44;100620.81;5160087;27;1975;-61
2021/07/14 00:07:59;;;;;;;;;;;;;;;22.30;53.16;100625.44;5160248;27;834;-59
2021/07/14 00:10:25;;;;;;;;;;;;;;;22.28;52.36;100614.69;5160696;27;844;-61
2021/07/14 00:13:06;;;;;;;;;;;;;;;22.19;50.93;100622.13;5160640;27;793;-61
2021/07/14 00:23:31;;;;;;;;;;;;;;;21.95;48.01;100630.75;5127102;27;1247;-62
2021/07/14 00:25:57;;;;;;;;;;;;;;;21.96;49.15;100627.66;5160321;27;1909;-60
2021/07/14 00:28:22;;;;;;;;;;;;;;;22.06;49.89;100634.91;5160515;27;520;-63
2021/07/14 00:31:01;;;;;;;;;;;;;;;22.04;50.65;100628.88;5160206;27;855;-61
2021/07/14 00:33:27;;;;;;;;;;;;;;;22.05;51.17;100627.75;5143381;27;1005;-59
2021/07/14 00:35:53;;;;;;;;;;;;;;;22.18;51.19;100626.03;5160066;27;747;-60
2021/07/14 00:38:18;;;;;;;;;;;;;;;22.25;51.55;100623.63;5159808;27;858;-60
2021/07/14 00:40:44;;;;;;;;;;;;;;;22.24;51.77;100633.06;5160399;27;774;-64
2021/07/14 00:43:09;;;;;;;;;;;;;;;22.28;52.05;100631.31;5160267;27;735;-60
2021/07/14 00:45:35;;;;;;;;;;;;;;;22.36;52.04;100632.53;5141045;27;1917;-61
2021/07/14 00:48:01;;;;;;;;;;;;;;;22.31;52.13;100624.31;5140696;27;829;-60
2021/07/14 00:50:26;;;;;;;;;;;;;;;22.37;52.08;100625.84;5141541;27;961;-60
2021/07/14 00:52:52;;;;;;;;;;;;;;;22.41;52.23;100626.03;5140732;27;898;-60
2021/07/14 00:55:17;;;;;;;;;;;;;;;22.38;52.14;100633.03;5160018;27;763;-61
2021/07/14 00:57:49;;;;;;;;;;;;;;;22.02;53.20;100626.41;5159604;27;850;-61
2021/07/14 01:00:14;;;;;;;;;;;;;;;21.99;53.13;100632.59;5159553;27;752;-61
2021/07/14 01:02:39;;;;;;;;;;;;;;;21.67;53.16;100628.91;5159808;27;799;-59
2021/07/14 01:05:06;;;;;;;;;;;;;;;21.84;53.84;100625.47;5140628;27;1034;-61
2021/07/14 01:07:36;;;;;;;;;;;;;;;22.03;54.17;100624.44;5139976;27;1981;-60
2021/07/14 01:10:06;;;;;;;;;;;;;;;22.18;54.69;100626.03;5141154;27;822;-60
2021/07/14 01:12:40;;;;;;;;;;;;;;;22.37;54.73;100629.44;5159664;27;873;-61
2021/07/14 01:15:08;;;;;;;;;;;;;;;22.33;55.79;100633.13;5158890;27;831;-61
2021/07/14 01:17:36;;;;;;;;;;;;;;;22.24;56.39;100635.84;5159300;27;834;-62
2021/07/14 01:20:02;;;;;;;;;;;;;;;22.01;55.32;100640.56;5126676;27;989;-60
2021/07/14 01:22:34;;;;;;;;;;;;;;;21.90;56.81;100631.69;5138242;27;787;-60
2021/07/14 01:25:07;;;;;;;;;;;;;;;22.11;58.04;100626.47;5120378;27;895;-61
2021/07/14 01:27:34;;;;;;;;;;;;;;;22.33;57.42;100627.56;5138191;27;1913;-61
2021/07/14 01:30:00;;;;;;;;;;;;;;;22.40;56.98;100619.69;5138010;27;795;-61
2021/07/14 01:32:26;;;;;;;;;;;;;;;22.28;56.48;100616.66;5138535;27;728;-63
2021/07/14 01:34:53;;;;;;;;;;;;;;;22.10;55.46;100622.06;5102538;27;931;-62
2021/07/14 01:37:18;;;;;;;;;;;;;;;21.80;53.40;100624.44;5120402;27;803;-61
2021/07/14 01:39:44;;;;;;;;;;;;;;;21.82;52.94;100622.16;5137935;27;851;-63
2021/07/14 01:42:09;;;;;;;;;;;;;;;21.86;51.55;100620.41;5120046;27;786;-59
2021/07/14 01:44:35;;;;;;;;;;;;;;;21.86;50.62;100614.06;5119493;27;779;-60
2021/07/14 01:47:00;;;;;;;;;;;;;;;21.94;49.64;100624.41;5138191;27;1968;-62
2021/07/14 01:49:28;;;;;;;;;;;;;;;21.87;49.29;100629.56;5119234;27;973;-59
2021/07/14 01:51:59;;;;;;;;;;;;;;;21.89;48.68;100632.81;5137491;27;874;-63
2021/07/14 01:54:24;;;;;;;;;;;;;;;21.85;48.49;100632.63;5120048;27;779;-63
2021/07/14 01:56:50;;;;;;;;;;;;;;;21.81;48.45;100628.84;5119459;27;743;-63
2021/07/14 01:59:15;;;;;;;;;;;;;;;21.89;48.05;100627.28;5137887;27;806;-63
2021/07/14 02:01:41;;;;;;;;;;;;;;;21.86;47.94;100628.72;5120080;27;763;-63
2021/07/14 02:06:51;;;;;;;;;;;;;;;21.98;49.88;100632.88;5142991;27;1973;-63
2021/07/14 02:09:17;;;;;;;;;;;;;;;21.97;51.67;100640.38;5139643;27;855;-61
2021/07/14 02:11:43;;;;;;;;;;;;;;;22.08;52.45;100629.88;5158417;27;826;-62
2021/07/14 02:14:08;;;;;;;;;;;;;;;22.18;53.18;100635.16;5139405;27;794;-59
2021/07/14 02:16:34;;;;;;;;;;;;;;;22.30;53.74;100636.53;5158870;27;779;-62
2021/07/14 02:19:00;;;;;;;;;;;;;;;22.37;54.10;100634.16;5138929;27;957;-63
2021/07/14 02:21:26;;;;;;;;;;;;;;;22.34;54.76;100643.09;5158463;27;814;-63
2021/07/14 02:23:52;;;;;;;;;;;;;;;22.17;55.80;100635.47;5158750;27;796;-63
2021/07/14 02:26:17;;;;;;;;;;;;;;;22.16;55.75;100642.97;5157943;27;1972;-59
2021/07/14 02:28:43;;;;;;;;;;;;;;;21.81;54.79;100631.63;5158241;27;850;-61
2021/07/14 02:31:08;;;;;;;;;;;;;;;21.91;57.32;100636.09;5158021;27;839;-61
2021/07/14 02:33:33;;;;;;;;;;;;;;;22.12;56.90;100625.34;5157697;27;941;-62
2021/07/14 02:36:00;;;;;;;;;;;;;;;22.24;56.41;100629.50;5157964;27;743;-60
2021/07/14 02:38:27;;;;;;;;;;;;;;;22.32;56.37;100628.72;5139134;27;792;-61
2021/07/14 02:40:53;;;;;;;;;;;;;;;22.19;56.81;100620.19;5158470;27;762;-62
2021/07/14 02:43:26;;;;;;;;;;;;;;;22.17;56.87;100624.41;5157748;27;790;-59
2021/07/14 02:45:51;;;;;;;;;;;;;;;21.83;55.24;100621.03;5140611;27;1905;-61
2021/07/14 02:48:17;;;;;;;;;;;;;;;21.91;57.81;100624.19;5139757;27;881;-60
2021/07/14 02:50:42;;;;;;;;;;;;;;;22.05;57.78;100619.44;5138800;27;1005;-61
2021/07/14 02:53:12;;;;;;;;;;;;;;;22.22;57.24;100614.00;5158300;27;719;-61
2021/07/14 02:55:38;;;;;;;;;;;;;;;22.43;56.62;100621.81;5139412;27;755;-60
2021/07/14 02:58:04;;;;;;;;;;;;;;;22.32;56.88;100617.66;5121615;27;1165;-62
2021/07/14 03:00:29;;;;;;;;;;;;;;;22.21;57.26;100612.34;5157693;27;807;-60
2021/07/14 03:02:55;;;;;;;;;;;;;;;22.01;55.89;100618.44;5139635;27;885;-62
2021/07/14 03:05:20;;;;;;;;;;;;;;;21.78;56.71;100610.09;5157042;27;1905;-63
2021/07/14 03:07:46;;;;;;;;;;;;;;;22.03;57.32;100621.69;5139434;27;787;-60
2021/07/14 03:10:12;;;;;;;;;;;;;;;22.05;57.20;100620.25;5157521;27;735;-63
2021/07/14 03:12:37;;;;;;;;;;;;;;;22.27;56.94;100626.09;5139163;27;1297;-60
2021/07/14 03:15:05;;;;;;;;;;;;;;;22.37;56.50;100617.53;5139831;27;788;-59
2021/07/14 03:17:31;;;;;;;;;;;;;;;22.37;56.92;100620.31;5160629;27;1184;-60
2021/07/14 03:19:56;;;;;;;;;;;;;;;22.21;57.44;100631.75;5142558;27;945;-60
2021/07/14 03:22:22;;;;;;;;;;;;;;;22.17;56.62;100632.69;5141955;27;1184;-61
2021/07/14 03:24:48;;;;;;;;;;;;;;;21.81;55.22;100631.63;5142740;27;847;-60
2021/07/14 03:27:13;;;;;;;;;;;;;;;21.98;57.95;100630.09;5161348;27;1978;-60
2021/07/14 03:29:39;;;;;;;;;;;;;;;22.02;58.67;100629.19;5161346;27;835;-62
2021/07/14 03:32:04;;;;;;;;;;;;;;;22.21;58.04;100623.44;5142607;27;831;-61
2021/07/14 03:34:30;;;;;;;;;;;;;;;22.38;57.44;100616.41;5150226;27;948;-61
2021/07/14 03:36:56;;;;;;;;;;;;;;;22.31;57.73;100611.28;5122309;27;791;-61
2021/07/14 03:39:21;;;;;;;;;;;;;;;22.27;57.87;100626.09;5122400;27;810;-61
2021/07/14 03:41:47;;;;;;;;;;;;;;;22.03;56.03;100622.53;5122143;27;779;-61
2021/07/14 03:44:12;;;;;;;;;;;;;;;21.92;57.46;100629.41;5122548;27;975;-61
2021/07/14 03:46:38;;;;;;;;;;;;;;;22.01;58.96;100633.06;5122137;27;1918;-61
2021/07/14 03:49:03;;;;;;;;;;;;;;;22.17;58.23;100639.03;5121085;27;1005;-64
2021/07/14 03:51:29;;;;;;;;;;;;;;;22.34;57.71;100646.72;5121848;27;827;-62
2021/07/14 03:53:54;;;;;;;;;;;;;;;22.24;57.90;100654.41;5122064;27;759;-64
2021/07/14 03:56:23;;;;;;;;;;;;;;;22.24;58.03;100663.53;5121877;27;827;-64
2021/07/14 03:58:49;;;;;;;;;;;;;;;22.00;55.97;100650.00;5140111;27;843;-61
2021/07/14 04:01:17;;;;;;;;;;;;;;;21.85;57.22;100654.78;5121601;27;901;-61
2021/07/14 04:03:42;;;;;;;;;;;;;;;22.07;58.98;100660.66;5121596;27;1078;-60
2021/07/14 04:06:08;;;;;;;;;;;;;;;22.19;58.41;100667.25;5141278;27;2015;-61
2021/07/14 04:08:38;;;;;;;;;;;;;;;22.36;57.91;100665.78;5142099;27;906;-61
2021/07/14 04:11:04;;;;;;;;;;;;;;;22.26;56.74;100669.59;5160538;27;802;-63
2021/07/14 04:13:30;;;;;;;;;;;;;;;22.18;57.46;100668.38;5160357;27;782;-65
2021/07/14 04:15:55;;;;;;;;;;;;;;;22.00;56.24;100670.19;5160788;27;790;-61
2021/07/14 04:18:21;;;;;;;;;;;;;;;21.82;57.28;100672.00;5160310;27;953;-60
2021/07/14 04:20:46;;;;;;;;;;;;;;;21.96;58.97;100668.38;5160284;27;993;-60
2021/07/14 04:23:11;;;;;;;;;;;;;;;22.22;57.90;100666.63;5160574;27;799;-61
2021/07/14 04:25:37;;;;;;;;;;;;;;;22.38;57.50;100669.03;5141590;27;1970;-60
2021/07/14 04:28:02;;;;;;;;;;;;;;;22.38;57.50;100669.88;5159440;27;767;-61
2021/07/14 04:30:28;;;;;;;;;;;;;;;22.28;58.07;100672.03;5160230;27;886;-61
2021/07/14 04:32:53;;;;;;;;;;;;;;;22.22;57.03;100669.41;5160396;27;787;-60
2021/07/14 04:35:19;;;;;;;;;;;;;;;21.99;55.41;100665.81;5159851;27;949;-62
2021/07/14 04:37:47;;;;;;;;;;;;;;;22.08;58.58;100660.34;5160120;27;842;-62
2021/07/14 04:40:12;;;;;;;;;;;;;;;22.24;58.89;100671.03;5160143;27;742;-63
2021/07/14 04:42:38;;;;;;;;;;;;;;;22.36;58.21;100663.81;5158999;27;775;-62
2021/07/14 04:45:03;;;;;;;;;;;;;;;22.40;58.16;100675.09;5159785;27;775;-61
2021/07/14 04:47:29;;;;;;;;;;;;;;;22.30;58.51;100678.06;5160288;27;1921;-60
2021/07/14 04:49:54;;;;;;;;;;;;;;;22.19;57.51;100675.56;5159124;27;953;-60
2021/07/14 04:52:20;;;;;;;;;;;;;;;22.02;55.62;100678.19;5158942;27;877;-66
2021/07/14 04:54:45;;;;;;;;;;;;;;;22.05;58.41;100680.34;5141194;27;795;-65
2021/07/14 04:57:11;;;;;;;;;;;;;;;22.14;59.52;100689.53;5159850;27;823;-63
2021/07/14 04:59:36;;;;;;;;;;;;;;;22.34;58.79;100692.97;5159654;27;826;-63
2021/07/14 05:02:02;;;;;;;;;;;;;;;22.42;58.25;100694.19;5140840;27;800;-62
2021/07/14 05:04:27;;;;;;;;;;;;;;;22.30;58.92;100689.16;5158358;27;1006;-62
2021/07/14 05:06:53;;;;;;;;;;;;;;;22.28;58.44;100689.47;5159843;27;1901;-61
2021/07/14 05:09:18;;;;;;;;;;;;;;;22.05;56.95;100680.34;5160090;27;803;-60
2021/07/14 05:11:44;;;;;;;;;;;;;;;21.88;55.98;100681.00;5159417;27;847;-61
2021/07/14 05:14:09;;;;;;;;;;;;;;;22.16;59.26;100678.97;5159355;27;778;-59
2021/07/14 05:16:34;;;;;;;;;;;;;;;22.25;60.01;100681.78;5158986;27;846;-63
2021/07/14 05:19:02;;;;;;;;;;;;;;;22.42;59.63;100672.00;5152736;27;952;-61
2021/07/14 05:21:28;;;;;;;;;;;;;;;22.35;59.32;100686.31;5138781;27;806;-62
2021/07/14 05:23:53;;;;;;;;;;;;;;;22.33;60.23;100677.44;5139049;27;799;-61
2021/07/14 05:26:19;;;;;;;;;;;;;;;22.24;59.03;100682.13;5138083;27;1905;-61
2021/07/14 05:28:45;;;;;;;;;;;;;;;21.98;57.97;100674.41;5138701;27;767;-59
2021/07/14 05:31:11;;;;;;;;;;;;;;;22.09;59.76;100677.75;5119561;27;816;-62
2021/07/14 05:33:36;;;;;;;;;;;;;;;22.19;61.53;100681.09;5121027;27;970;-62
2021/07/14 05:36:02;;;;;;;;;;;;;;;22.37;61.54;100679.31;5159019;27;739;-62
2021/07/14 05:38:28;;;;;;;;;;;;;;;22.50;60.93;100683.13;5140502;27;911;-63
2021/07/14 05:40:54;;;;;;;;;;;;;;;22.51;61.09;100683.94;5158598;27;775;-63
2021/07/14 05:43:19;;;;;;;;;;;;;;;22.36;58.04;100680.44;5158219;27;866;-62
2021/07/14 05:45:45;;;;;;;;;;;;;;;21.79;52.77;100688.41;5158773;27;1906;-63
2021/07/14 05:48:10;;;;;;;;;;;;;;;21.78;54.30;100690.34;5158598;27;807;-65
2021/07/14 05:50:36;;;;;;;;;;;;;;;21.83;54.15;100690.25;5120282;27;1164;-62
2021/07/14 05:53:02;;;;;;;;;;;;;;;21.90;53.69;100689.81;5119687;27;1243;-62
2021/07/14 05:55:27;;;;;;;;;;;;;;;22.02;53.53;100683.72;5118703;27;1422;-62
2021/07/14 05:57:54;;;;;;;;;;;;;;;22.08;53.78;100689.97;5138163;27;843;-63
2021/07/14 06:00:19;;;;;;;;;;;;;;;22.18;53.87;100693.31;5137906;27;807;-62
2021/07/14 06:02:44;;;;;;;;;;;;;;;22.31;53.71;100691.59;5118727;27;1030;-62
2021/07/14 06:05:11;;;;;;;;;;;;;;;22.37;53.70;100698.72;5152997;27;1205;-63
2021/07/14 06:07:38;;;;;;;;;;;;;;;22.40;53.84;100691.72;5139281;27;1905;-62
2021/07/14 06:10:04;;;;;;;;;;;;;;;22.49;53.71;100697.31;5158141;27;810;-62
2021/07/14 06:12:29;;;;;;;;;;;;;;;22.49;53.93;100695.34;5158258;27;893;-61
2021/07/14 06:14:55;;;;;;;;;;;;;;;22.34;54.29;100699.34;5157985;27;758;-65
2021/07/14 06:17:20;;;;;;;;;;;;;;;22.33;54.60;100699.59;5157920;27;763;-62
2021/07/14 06:19:46;;;;;;;;;;;;;;;22.01;53.51;100702.28;5157760;27;953;-62
2021/07/14 06:22:12;;;;;;;;;;;;;;;21.93;55.70;100699.47;5154170;27;906;-62
2021/07/14 06:24:38;;;;;;;;;;;;;;;22.16;54.99;100700.28;5157471;27;838;-62
2021/07/14 06:27:04;;;;;;;;;;;;;;;22.27;54.79;100698.09;5157474;27;1901;-62
2021/07/14 06:29:29;;;;;;;;;;;;;;;22.40;54.20;100705.56;5157584;27;779;-62
2021/07/14 06:31:55;;;;;;;;;;;;;;;22.42;54.25;100705.25;5157779;27;814;-62
2021/07/14 06:34:20;;;;;;;;;;;;;;;22.27;54.57;100704.44;5156806;27;830;-62
2021/07/14 06:36:46;;;;;;;;;;;;;;;22.25;54.64;100705.91;5157689;27;751;-62
2021/07/14 06:39:11;;;;;;;;;;;;;;;21.91;53.28;100705.31;5139536;27;818;-62
2021/07/14 06:41:37;;;;;;;;;;;;;;;21.97;55.55;100711.53;5158069;27;786;-62
2021/07/14 06:44:03;;;;;;;;;;;;;;;22.14;56.45;100703.38;5157453;27;790;-62
2021/07/14 06:46:28;;;;;;;;;;;;;;;22.39;57.85;100704.75;5157102;27;1973;-62
2021/07/14 06:48:54;;;;;;;;;;;;;;;22.46;58.91;100701.53;5157182;27;984;-62
2021/07/14 06:51:19;;;;;;;;;;;;;;;22.55;59.72;100698.81;5160485;27;782;-62
2021/07/14 06:53:45;;;;;;;;;;;;;;;22.40;57.32;100697.25;5162128;27;802;-61
2021/07/14 06:56:10;;;;;;;;;;;;;;;22.00;54.97;100700.66;5161647;27;747;-61
2021/07/14 06:58:37;;;;;;;;;;;;;;;22.16;58.29;100705.81;5161262;27;829;-61
2021/07/14 07:01:03;;;;;;;;;;;;;;;22.20;59.25;100698.53;5162004;27;839;-61
2021/07/14 07:03:29;;;;;;;;;;;;;;;22.39;58.39;100709.47;5160914;27;1204;-61
2021/07/14 07:05:54;;;;;;;;;;;;;;;22.40;57.26;100719.44;5161479;27;1909;-67
2021/07/14 07:08:19;;;;;;;;;;;;;;;22.48;56.60;100715.06;5161913;27;775;-65
2021/07/14 07:10:46;;;;;;;;;;;;;;;22.36;56.23;100708.16;5161471;27;766;-64
2021/07/14 07:13:15;;;;;;;;;;;;;;;22.34;55.39;100713.19;5160748;27;819;-61
2021/07/14 07:15:41;;;;;;;;;;;;;;;21.92;53.46;100725.50;5161713;27;823;-62
2021/07/14 07:18:06;;;;;;;;;;;;;;;21.92;56.12;100717.19;5161650;27;742;-62
2021/07/14 07:20:32;;;;;;;;;;;;;;;22.10;56.00;100715.41;5142125;27;953;-60
2021/07/14 07:22:57;;;;;;;;;;;;;;;22.18;55.81;100718.22;5140851;27;842;-59
2021/07/14 07:25:22;;;;;;;;;;;;;;;22.29;55.33;100718.81;5152871;27;862;-60
2021/07/14 07:27:48;;;;;;;;;;;;;;;22.43;55.07;100716.03;5161308;27;1914;-60
2021/07/14 07:30:14;;;;;;;;;;;;;;;22.30;55.33;100714.09;5161480;27;821;-61
2021/07/14 07:32:39;;;;;;;;;;;;;;;22.29;55.49;100718.81;5160817;27;831;-62
2021/07/14 07:35:05;;;;;;;;;;;;;;;22.01;53.94;100720.88;5127098;27;981;-61
2021/07/14 07:37:31;;;;;;;;;;;;;;;21.94;56.31;100721.28;5148361;27;843;-61
2021/07/14 07:39:57;;;;;;;;;;;;;;;22.12;56.10;100719.50;5160683;27;726;-62
2021/07/14 07:42:22;;;;;;;;;;;;;;;22.27;55.56;100720.25;5161407;27;751;-62
2021/07/14 07:44:48;;;;;;;;;;;;;;;22.40;55.05;100716.66;5160869;27;916;-61
2021/07/14 07:47:14;;;;;;;;;;;;;;;22.38;55.09;100724.44;5160612;27;1917;-62
2021/07/14 07:49:42;;;;;;;;;;;;;;;22.35;55.23;100714.81;5151837;27;1024;-62
2021/07/14 07:52:08;;;;;;;;;;;;;;;22.17;54.70;100721.31;5161002;27;907;-62
2021/07/14 07:54:34;;;;;;;;;;;;;;;21.83;53.40;100715.16;5160404;27;801;-61
2021/07/14 07:56:59;;;;;;;;;;;;;;;21.97;57.34;100725.38;5161090;27;563;-62
2021/07/14 07:59:24;;;;;;;;;;;;;;;22.19;58.46;100724.63;5160893;27;806;-62
2021/07/14 08:01:50;;;;;;;;;;;;;;;22.38;59.27;100708.66;5159189;27;787;-61
2021/07/14 08:04:17;;;;;;;;;;;;;;;22.35;60.37;100712.03;5150698;27;1156;-63
2021/07/14 08:06:42;;;;;;;;;;;;;;;22.43;60.55;100713.25;5158153;27;1917;-60
2021/07/14 08:09:07;;;;;;;;;;;;;;;22.24;57.80;100713.38;5139470;27;807;-60
2021/07/14 08:11:33;;;;;;;;;;;;;;;22.05;55.13;100711.63;5139532;27;840;-60
2021/07/14 08:13:59;;;;;;;;;;;;;;;22.14;58.81;100703.38;5139481;27;763;-60
2021/07/14 08:16:25;;;;;;;;;;;;;;;22.21;59.92;100700.97;5139175;27;897;-60
2021/07/14 08:18:51;;;;;;;;;;;;;;;22.34;59.80;100707.66;5134930;27;954;-60
2021/07/14 08:21:16;;;;;;;;;;;;;;;22.38;58.83;100699.50;5119030;28;799;-61
2021/07/14 08:23:42;;;;;;;;;;;;;;;22.47;57.29;100696.78;5100472;28;814;-61
2021/07/14 08:26:07;;;;;;;;;;;;;;;22.41;56.34;100698.06;5118840;28;1913;-61
2021/07/14 08:28:32;;;;;;;;;;;;;;;22.15;56.42;100701.44;5126625;27;927;-61
2021/07/14 08:30:58;;;;;;;;;;;;;;;22.17;55.95;100699.97;5139176;27;861;-61
2021/07/14 08:33:23;;;;;;;;;;;;;;;21.82;54.01;100702.44;5138868;27;965;-61
2021/07/14 08:35:49;;;;;;;;;;;;;;;22.01;55.85;100699.53;5118450;28;942;-60
2021/07/14 08:38:14;;;;;;;;;;;;;;;22.09;56.25;100697.97;5118543;28;740;-61
2021/07/14 08:40:40;;;;;;;;;;;;;;;22.28;55.73;100694.22;5121623;27;820;-63
2021/07/14 08:43:05;;;;;;;;;;;;;;;22.32;55.41;100700.75;5138985;27;771;-62
2021/07/14 08:45:30;;;;;;;;;;;;;;;22.33;55.98;100702.38;5138742;27;874;-60
2021/07/14 08:47:56;;;;;;;;;;;;;;;22.30;56.51;100700.22;5139067;27;1901;-60
2021/07/14 08:50:21;;;;;;;;;;;;;;;22.24;55.44;100693.19;5118709;27;958;-63
2021/07/14 08:52:50;;;;;;;;;;;;;;;21.85;53.81;100696.31;5138805;27;775;-62
2021/07/14 08:55:16;;;;;;;;;;;;;;;21.91;57.19;100694.25;5120388;27;835;-62
2021/07/14 08:57:42;;;;;;;;;;;;;;;22.15;59.18;100690.38;5139119;27;781;-63
2021/07/14 09:00:09;;;;;;;;;;;;;;;22.43;59.80;100691.09;5120584;27;763;-63
2021/07/14 09:02:35;;;;;;;;;;;;;;;22.50;61.02;100696.19;5138684;27;823;-62
2021/07/14 09:05:00;;;;;;;;;;;;;;;22.62;60.99;100692.81;5154201;27;1097;-62
2021/07/14 09:07:25;;;;;;;;;;;;;;;22.30;56.09;100691.94;5159025;27;1968;-63
2021/07/14 09:09:51;;;;;;;;;;;;;;;22.00;54.99;100689.56;5141209;27;774;-62
2021/07/14 09:12:16;;;;;;;;;;;;;;;22.03;56.70;100694.50;5140627;27;1093;-63
2021/07/14 09:14:42;;;;;;;;;;;;;;;22.11;56.20;100689.34;5158702;27;810;-62
2021/07/14 09:17:22;;;;;;;;;;;;;;;22.14;54.50;100684.00;5141100;27;758;-62
2021/07/14 09:19:47;;;;;;;;;;;;;;;22.17;53.10;100677.81;5158466;27;933;-63
2021/07/14 09:22:23;;;;;;;;;;;;;;;22.16;52.32;100678.97;5140474;27;798;-62
2021/07/14 09:24:48;;;;;;;;;;;;;;;22.22;51.35;100677.69;5157621;27;798;-62
2021/07/14 09:27:27;;;;;;;;;;;;;;;22.21;50.59;100681.59;5158680;27;1972;-64
2021/07/14 09:30:05;;;;;;;;;;;;;;;22.18;50.34;100679.47;5158557;27;755;-64
2021/07/14 09:32:49;;;;;;;;;;;;;;;22.25;49.71;100687.34;5158267;27;890;-63
2021/07/14 09:35:25;;;;;;;;;;;;;;;22.23;49.49;100678.50;5158508;27;971;-62
2021/07/14 09:37:50;;;;;;;;;;;;;;;22.22;50.04;100668.59;5158510;27;779;-61
2021/07/14 09:40:16;;;;;;;;;;;;;;;22.32;50.67;100673.88;5159136;27;977;-62
2021/07/14 09:42:55;;;;;;;;;;;;;;;22.37;51.51;100671.00;5158893;27;814;-62
2021/07/14 09:45:33;;;;;;;;;;;;;;;22.36;52.47;100671.31;5157469;27;862;-64
2021/07/14 09:47:58;;;;;;;;;;;;;;;22.45;52.89;100683.25;5122988;27;2368;-64
2021/07/14 09:50:37;;;;;;;;;;;;;;;22.35;53.66;100676.03;5158237;27;957;-64
2021/07/14 09:53:03;;;;;;;;;;;;;;;22.31;54.27;100680.53;5139153;27;795;-63
2021/07/14 09:55:29;;;;;;;;;;;;;;;21.94;53.17;100679.75;5158687;27;771;-62
2021/07/14 09:58:27;;;;;;;;;;;;;;;21.97;55.32;100681.09;5157917;27;878;-62
2021/07/14 10:00:53;;;;;;;;;;;;;;;22.17;55.21;100685.31;5099570;27;1415;-64
2021/07/14 10:03:20;;;;;;;;;;;;;;;22.28;54.88;100688.66;5157825;27;1081;-61
2021/07/14 10:05:45;;;;;;;;;;;;;;;22.42;54.47;100689.44;5139336;27;1917;-62
2021/07/14 10:08:18;;;;;;;;;;;;;;;22.45;54.32;100688.00;5158035;27;763;-63
2021/07/14 10:10:44;;;;;;;;;;;;;;;22.40;54.65;100686.19;5121728;27;1185;-64
2021/07/14 10:13:09;;;;;;;;;;;;;;;22.33;54.54;100691.28;5158671;27;794;-64
2021/07/14 10:15:35;;;;;;;;;;;;;;;21.83;53.21;100673.63;5152813;27;1105;-64
2021/07/14 10:18:00;;;;;;;;;;;;;;;21.93;56.08;100685.63;5124129;27;891;-64
2021/07/14 10:20:26;;;;;;;;;;;;;;;22.11;57.19;100681.84;5157398;27;1004;-65
2021/07/14 10:22:52;;;;;;;;;;;;;;;22.35;57.97;100691.84;5156659;27;871;-65
2021/07/14 10:25:18;;;;;;;;;;;;;;;22.42;58.86;100678.34;5120746;27;949;-68
2021/07/14 10:27:44;;;;;;;;;;;;;;;22.59;59.41;100682.38;5121677;27;1918;-67
2021/07/14 10:30:10;;;;;;;;;;;;;;;22.42;57.87;100678.34;5157048;27;767;-63
2021/07/14 10:32:35;;;;;;;;;;;;;;;21.85;53.31;100674.16;5139084;27;747;-63
2021/07/14 10:35:00;;;;;;;;;;;;;;;21.98;55.95;100674.41;5137644;27;1008;-64
2021/07/14 10:37:26;;;;;;;;;;;;;;;22.04;56.58;100668.44;5137708;27;819;-62
2021/07/14 10:39:51;;;;;;;;;;;;;;;22.04;55.99;100673.97;5138712;27;815;-63
2021/07/14 10:42:17;;;;;;;;;;;;;;;22.13;54.63;100660.22;5138855;27;747;-65
2021/07/14 10:44:42;;;;;;;;;;;;;;;22.29;53.10;100665.38;5156723;27;750;-67
2021/07/14 10:47:08;;;;;;;;;;;;;;;22.27;52.54;100659.31;5137737;27;1913;-62
2021/07/14 10:49:33;;;;;;;;;;;;;;;22.31;51.64;100671.41;5155819;27;854;-66
2021/07/14 10:51:58;;;;;;;;;;;;;;;22.22;51.25;100661.09;5157290;27;871;-61
2021/07/14 10:54:24;;;;;;;;;;;;;;;22.29;50.98;100662.63;5137859;27;1124;-60
2021/07/14 10:56:50;;;;;;;;;;;;;;;22.30;50.73;100667.00;5157550;27;776;-61
2021/07/14 10:59:16;;;;;;;;;;;;;;;22.30;50.55;100678.06;5138536;27;823;-60
2021/07/14 11:01:44;;;;;;;;;;;;;;;22.31;50.47;100665.88;5137715;27;1337;-61
2021/07/14 11:04:30;;;;;;;;;;;;;;;22.32;50.01;100678.59;5156090;27;998;-61
2021/07/14 11:06:56;;;;;;;;;;;;;;;22.35;49.85;100667.72;5138796;27;1905;-61
2021/07/14 11:09:34;;;;;;;;;;;;;;;22.31;49.83;100666.69;5156874;27;795;-59
2021/07/14 11:12:00;;;;;;;;;;;;;;;22.35;49.76;100662.19;5157102;27;826;-60
2021/07/14 11:14:35;;;;;;;;;;;;;;;22.34;49.59;100666.09;5156024;27;846;-62
2021/07/14 11:17:00;;;;;;;;;;;;;;;22.37;49.53;100675.72;5137789;27;940;-61
2021/07/14 11:19:41;;;;;;;;;;;;;;;22.33;49.41;100671.91;5138687;27;1001;-61
2021/07/14 11:22:07;;;;;;;;;;;;;;;22.30;49.50;100670.59;5156604;27;861;-63
2021/07/14 11:24:49;;;;;;;;;;;;;;;22.40;49.24;100672.34;5156682;27;747;-64
2021/07/14 11:27:27;;;;;;;;;;;;;;;22.36;49.34;100674.09;5155319;27;1909;-61
2021/07/14 11:29:54;;;;;;;;;;;;;;;22.33;49.20;100669.13;5151130;27;1240;-62
2021/07/14 11:32:34;;;;;;;;;;;;;;;22.34;49.46;100681.88;5154309;27;1295;-61
2021/07/14 11:35:09;;;;;;;;;;;;;;;22.35;49.27;100675.22;5150416;27;927;-62
2021/07/14 11:37:35;;;;;;;;;;;;;;;22.44;49.26;100676.09;5158716;27;1169;-61
2021/07/14 11:40:19;;;;;;;;;;;;;;;22.38;49.13;100677.34;5159636;27;859;-62
2021/07/14 11:42:50;;;;;;;;;;;;;;;22.38;49.32;100682.88;5160123;27;1212;-60
2021/07/14 11:45:16;;;;;;;;;;;;;;;22.35;49.13;100680.75;5160106;27;857;-62
2021/07/14 11:47:41;;;;;;;;;;;;;;;22.33;49.19;100674.66;5160986;27;1984;-62
2021/07/14 11:50:07;;;;;;;;;;;;;;;22.30;49.29;100675.31;5159211;27;1015;-63
2021/07/14 11:52:50;;;;;;;;;;;;;;;22.33;49.26;100677.44;5159304;27;1209;-62
2021/07/14 11:55:22;;;;;;;;;;;;;;;22.33;49.25;100674.66;5160518;27;727;-60
2021/07/14 11:57:47;;;;;;;;;;;;;;;22.36;49.17;100679.63;5141773;27;1279;-62
2021/07/14 12:00:13;;;;;;;;;;;;;;;22.35;48.99;100672.44;5141049;27;1204;-62
2021/07/14 12:02:38;;;;;;;;;;;;;;;22.43;48.97;100673.63;5160315;27;827;-62
2021/07/14 12:05:07;;;;;;;;;;;;;;;22.33;49.03;100669.13;5147488;27;1121;-62
2021/07/14 12:07:40;;;;;;;;;;;;;;;22.31;48.96;100663.09;5139323;27;1973;-63
2021/07/14 12:10:08;;;;;;;;;;;;;;;22.29;49.37;100677.28;5120976;27;799;-65
2021/07/14 12:12:34;;;;;;;;;;;;;;;22.32;49.33;100675.81;5120650;27;1203;-66
2021/07/14 12:15:00;;;;;;;;;;;;;;;22.37;49.13;100681.25;5120660;27;809;-63
2021/07/14 12:17:26;;;;;;;;;;;;;;;22.35;49.19;100676.03;5120141;27;1075;-61
2021/07/14 12:19:55;;;;;;;;;;;;;;;22.35;49.18;100689.06;5149040;27;910;-62
2021/07/14 12:22:22;;;;;;;;;;;;;;;22.35;49.15;100683.53;5140362;27;772;-60
2021/07/14 12:24:48;;;;;;;;;;;;;;;22.32;49.33;100668.31;5159529;27;775;-62
2021/07/14 12:27:20;;;;;;;;;;;;;;;22.37;49.70;100664.63;5159066;27;1898;-60
2021/07/14 12:29:47;;;;;;;;;;;;;;;22.34;49.73;100670.81;5159582;27;850;-65
2021/07/14 12:32:13;;;;;;;;;;;;;;;22.24;49.91;100668.28;5140786;27;814;-62
2021/07/14 12:34:38;;;;;;;;;;;;;;;22.33;49.81;100664.47;5146941;27;922;-61
2021/07/14 12:37:04;;;;;;;;;;;;;;;22.36;49.93;100674.91;5159660;27;755;-64
2021/07/14 12:39:31;;;;;;;;;;;;;;;22.38;49.70;100672.66;5159180;27;858;-64
2021/07/14 12:41:57;;;;;;;;;;;;;;;22.37;49.70;100670.16;5140731;27;1105;-66
2021/07/14 12:44:23;;;;;;;;;;;;;;;22.34;49.47;100668.03;5144657;27;815;-63
2021/07/14 12:46:48;;;;;;;;;;;;;;;22.32;49.52;100684.13;5138471;27;1909;-62
2021/07/14 12:49:15;;;;;;;;;;;;;;;22.42;49.19;100672.81;5117876;27;925;-66
2021/07/14 12:51:42;;;;;;;;;;;;;;;22.43;49.04;100674.47;5138390;27;788;-63
2021/07/14 12:54:08;;;;;;;;;;;;;;;22.43;49.17;100677.22;5120145;27;1342;-65
2021/07/14 12:56:33;;;;;;;;;;;;;;;22.44;49.10;100678.88;5119344;27;778;-65
2021/07/14 12:59:00;;;;;;;;;;;;;;;22.38;49.26;100688.44;5138101;27;787;-66
2021/07/14 13:01:25;;;;;;;;;;;;;;;22.40;49.11;100680.63;5138196;27;775;-66
2021/07/14 13:03:51;;;;;;;;;;;;;;;22.44;49.20;100676.09;5145795;27;1246;-64